עמוד ראשי
METAR-TAF:

METAR-TAF

שדות תעופה :

Lahaina, הוואי, ארצות הברית

קו רוחב: 21-01N, קו אורך: 156-38W, גובה: 40מטר

METAR: חסר

זמן: 15:08 (01:08 UTC)

תחזית

הדו"ח נערך לפני 1 שעות ו 30דקות, בשעה 23:38 UTC
תחזית בתוקף מ 27 ב 00 UTC עד 27 ב 24 UTC
רוח 17קשר מכיוון צפון-מזרח
ראות: 10קילומטר
מעט עננים בגובה 3000רגל
עננים פזורים בגובה 5000רגל
מ 27 ב 0800UTC
רוח 7קשר מכיוון מזרח/צפון-מזרח
ראות: 10קילומטר
מעט עננים בגובה 3000רגל
עננים בינוניים בגובה 5000רגל

TAF: PHJH 262338Z 2700/2724 05017KT P6SM FEW030 SCT050 FM270800 07007KT P6SM FEW030 BKN050

תצפיות ותחזיות מזג אוויר לגבי יותר מ- 4,000 שדות תעופה ברחבי העולם. דוחות METAR ו- TAF.

התחנות הזמינות מסומנות בנקודות צהובות ואדומות על גבי המפה.

העבר את העכבר לנקודה הצבעונית על מנת לראות את שם התחנה.

לאחר מכן, לחץ כדי לראות את תוכן ואת תחזיות מזג האוויר.

כדי לשנות את המפה: לחץ על הכפתורים הירוקים עם הפלוס השחור כדי להתקרב; על הכפתור הירוק עם המקף כדי להתרחק; או בחיצים הירוקים למפות סמוכות.


METAR-TAF: